Página principal
Imagens de satélite Previsões 15 diasClimaMeteorologia maritima Ciclones Descargas eléctricas AeroportosFAQ Notícias Sobre
Tempo : Europa África América do Norte América do Sul Ásia Austrália-Oceania Outros
Línguas Contacto

Cuiabá, Mato Grosso, Brasil

latitude: 15-39S, longitude: 056-06W, altura: 187 m


METAR: SBCY 210800Z 25002KT 9999 FEW020 SCT100 24/21 Q1012
TAF: SBCY 210400Z 2106/2206 19005KT 9999 FEW020 TN26/2107Z TX32/2118Z BECMG 2111/2113 SCT020 FEW025TCU RMK PDZ

Hora: 05:39 (08:39 UTC)

Observação actual do tempo

O boletim foi feito há 39 minutos, às 08:00 UTC  
Vento 02 kt de oes-sudoeste
Temperatura 24°C
Humidade 83%
Pressão 1012 hPa
Visibilidade 10 km ou mais
Poucas nuvens a uma altura de 2000 ft
Nuvens dispersas a uma altura de 10000 ft

Mudar unidades

Previsão

O boletim foi feito há 04 horas e 39 minutos, às 04:00 UTC  
Previsão válida de 21 às 06 UTC a 22 às 06 UTC
Vento 05 kt de sul
Visibilidade 10 km ou mais
Poucas nuvens a uma altura de 2000 ft
Tornando-se
de 21 às 11 UTC a 21 às 13 UTC
Nuvens dispersas a uma altura de 2000 ft
Poucas nuvens a uma altura de 2500 ft , Cumulus congestus.
As informações contidas neste sítio estão sujeitas a uma declaração de exoneração de responsabilidade
Tempo : Europa África América do Norte América do Sul Ásia Austrália-Oceania Outros
Imagens de satélite Previsões 15 diasClimaMeteorologia maritima Ciclones Descargas eléctricas AeroportosFAQ Línguas Contacto Notícias Sobre